Time;durP1;ratioP1;P1;durP2;ratioP2;P2;SDS_P1;SDS_P2;PMS_P1;PMS_P2;Temp;Humidity;BMP_temperature;BMP_pressure;BME280_temperature;BME280_humidity;BME280_pressure;Samples;Min_cycle;Max_cycle;Signal;HPM_P1;HPM_P2
2023/04/01 00:01:56;;;;;;;;;0.00;0.00;;;;;11.17;66.98;99950.22;6277171;22;45215;-71
2023/04/01 00:04:21;;;;;;;;;0.25;0.25;;;;;11.17;66.70;99952.84;6278253;22;45241;-71
2023/04/01 00:06:47;;;;;;;;;2.00;0.00;;;;;11.15;66.63;99933.44;6277660;22;45247;-71
2023/04/01 00:09:13;;;;;;;;;1.00;0.75;;;;;11.13;67.02;99939.59;6278233;22;45409;-71
2023/04/01 00:11:38;;;;;;;;;0.00;0.00;;;;;11.12;66.54;99938.69;6277753;22;45361;-71
2023/04/01 00:14:04;;;;;;;;;2.00;0.00;;;;;11.08;66.23;99939.53;6278361;22;45187;-71
2023/04/01 00:16:30;;;;;;;;;0.00;0.00;;;;;11.16;66.93;99952.81;6277388;22;45351;-71
2023/04/01 00:18:55;;;;;;;;;1.75;1.00;;;;;11.17;66.36;99949.28;6277804;22;45208;-71
2023/04/01 00:21:22;;;;;;;;;0.25;0.00;;;;;11.06;67.19;99936.00;6276929;22;45232;-71
2023/04/01 00:23:48;;;;;;;;;2.00;0.00;;;;;11.22;66.59;99957.28;6277969;22;45281;-71
2023/04/01 00:26:14;;;;;;;;;0.00;0.00;;;;;11.14;67.77;99950.16;6277763;22;45144;-71
2023/04/01 00:28:40;;;;;;;;;0.00;0.00;;;;;11.05;68.95;99936.88;6277895;22;45388;-71
2023/04/01 00:31:10;;;;;;;;;0.00;0.00;;;;;11.14;68.00;99958.09;6276634;22;46054;-71
2023/04/01 00:33:36;;;;;;;;;0.00;0.00;;;;;11.11;67.42;99952.78;6277242;22;45332;-71
2023/04/01 00:36:13;;;;;;;;;1.25;0.00;;;;;11.11;68.08;99950.13;6276008;22;45274;-71
2023/04/01 00:38:40;;;;;;;;;0.00;0.00;;;;;11.06;68.37;99953.63;6277911;22;45227;-71
2023/04/01 00:41:05;;;;;;;;;0.00;0.00;;;;;11.07;69.20;99969.50;6276790;22;47085;-71
2023/04/01 00:43:32;;;;;;;;;0.00;0.00;;;;;11.00;68.25;99949.16;6277282;22;45303;-71
2023/04/01 00:45:57;;;;;;;;;1.00;0.00;;;;;11.03;68.55;99958.88;6275180;22;45196;-71
2023/04/01 00:48:28;;;;;;;;;2.00;0.00;;;;;11.04;67.85;99964.19;6275633;22;45616;-71
2023/04/01 00:51:11;;;;;;;;;1.00;0.00;;;;;11.02;68.96;99963.28;6277625;22;45876;-71
2023/04/01 00:53:41;;;;;;;;;2.75;0.00;;;;;10.98;69.01;99950.94;6277561;22;45298;-71
2023/04/01 00:56:11;;;;;;;;;0.00;0.00;;;;;10.87;68.40;99942.88;6277352;22;45102;-71
2023/04/01 00:58:42;;;;;;;;;0.50;0.50;;;;;10.91;69.50;99942.03;6277483;22;45306;-71
2023/04/01 01:01:09;;;;;;;;;0.00;0.00;;;;;10.96;69.21;99952.66;6276633;22;45208;-70
2023/04/01 01:03:35;;;;;;;;;0.00;0.00;;;;;10.89;68.50;99933.19;6277154;22;45343;-71
2023/04/01 01:06:10;;;;;;;;;0.75;0.00;;;;;10.93;68.93;99945.59;6277622;22;45434;-71
2023/04/01 01:09:03;;;;;;;;;3.00;0.00;;;;;10.97;68.90;99965.00;6277638;22;45288;-70
2023/04/01 01:11:57;;;;;;;;;0.00;0.00;;;;;10.91;69.04;99947.31;6277079;22;46125;-70
2023/04/01 01:14:51;;;;;;;;;0.00;0.00;;;;;10.93;69.67;99958.81;6277422;22;45269;-71
2023/04/01 01:17:28;;;;;;;;;3.00;0.00;;;;;10.84;70.27;99955.16;6232495;22;45293;-71
2023/04/01 01:20:07;;;;;;;;;0.00;0.00;;;;;10.90;70.36;99960.53;6277401;22;45320;-70
2023/04/01 01:23:10;;;;;;;;;0.00;0.00;;;;;10.88;69.19;99960.50;6275049;22;46299;-71
2023/04/01 01:26:01;;;;;;;;;1.25;0.00;;;;;10.86;69.87;99954.31;6277187;22;45312;-70
2023/04/01 01:28:29;;;;;;;;;1.75;0.75;;;;;10.86;69.69;99954.31;6240303;22;45211;-71
2023/04/01 01:31:07;;;;;;;;;0.00;0.00;;;;;10.84;70.32;99956.09;6276732;22;45745;-70
2023/04/01 01:34:08;;;;;;;;;1.25;1.00;;;;;10.85;69.45;99951.69;6277445;22;45310;-70
2023/04/01 01:36:37;;;;;;;;;0.75;0.00;;;;;10.84;69.66;99944.59;6264111;22;45291;-71
2023/04/01 01:39:06;;;;;;;;;0.00;0.00;;;;;10.81;70.04;99955.16;6276721;22;45310;-70
2023/04/01 01:41:32;;;;;;;;;0.00;0.00;;;;;10.88;70.14;99967.56;6274175;22;45761;-70
2023/04/01 01:43:59;;;;;;;;;0.00;0.00;;;;;10.88;69.94;99963.16;6300607;22;45676;-70
2023/04/01 01:46:28;;;;;;;;;0.00;0.00;;;;;10.84;69.91;99961.38;6276491;22;45295;-70
2023/04/01 01:48:55;;;;;;;;;1.00;0.00;;;;;10.75;70.34;99943.66;6277213;22;45216;-70
2023/04/01 01:51:21;;;;;;;;;0.00;0.00;;;;;10.74;71.10;99933.06;6276656;22;45177;-70
2023/04/01 01:53:47;;;;;;;;;2.00;0.00;;;;;10.77;70.90;99967.44;6275124;22;46582;-72
2023/04/01 01:56:13;;;;;;;;;0.00;0.00;;;;;10.64;70.94;99945.31;6274724;22;45233;-70
2023/04/01 01:58:47;;;;;;;;;2.50;0.00;;;;;10.78;70.75;99976.25;6277258;22;45420;-70
2023/04/01 02:01:23;;;;;;;;;0.50;0.50;;;;;10.75;71.70;99978.03;6273752;22;46101;-70
2023/04/01 02:03:50;;;;;;;;;0.75;0.00;;;;;10.72;70.65;99967.41;6276625;22;45248;-70
2023/04/01 02:06:19;;;;;;;;;0.00;0.00;;;;;10.68;71.36;99973.53;6276604;22;45283;-70
2023/04/01 02:08:51;;;;;;;;;2.75;1.00;;;;;10.73;72.65;99973.59;6277053;22;45310;-70
2023/04/01 02:11:22;;;;;;;;;0.00;0.00;;;;;10.64;71.91;99962.91;6276434;22;45298;-70
2023/04/01 02:14:06;;;;;;;;;0.50;0.00;;;;;10.66;71.25;99964.69;6277190;22;45198;-70
2023/04/01 02:16:43;;;;;;;;;0.50;0.00;;;;;10.71;71.65;99986.78;6277943;22;45252;-70
2023/04/01 02:19:11;;;;;;;;;0.00;0.00;;;;;10.71;71.65;99984.13;6278852;22;45417;-70
2023/04/01 02:21:39;;;;;;;;;0.00;0.00;;;;;10.64;72.89;99986.69;6278186;22;45246;-70
2023/04/01 02:24:09;;;;;;;;;0.00;0.00;;;;;10.67;72.56;99987.63;6276124;22;46084;-70
2023/04/01 02:26:35;;;;;;;;;1.25;0.00;;;;;10.70;71.70;99992.94;6278562;22;45282;-70
2023/04/01 02:29:03;;;;;;;;;1.50;0.00;;;;;10.70;72.51;99987.66;6278701;22;45254;-70
2023/04/01 02:31:29;;;;;;;;;1.25;0.00;;;;;10.62;72.56;99978.75;6277535;22;45508;-72
2023/04/01 02:33:55;;;;;;;;;2.25;0.00;;;;;10.63;72.03;99977.88;6278379;22;46194;-72
2023/04/01 02:36:20;;;;;;;;;1.50;0.00;;;;;10.69;71.77;99985.00;6278055;22;45216;-70
2023/04/01 02:38:47;;;;;;;;;2.25;0.25;;;;;10.69;72.06;99991.16;6278370;22;48978;-71
2023/04/01 02:41:13;;;;;;;;;2.25;1.00;;;;;10.71;71.57;99994.72;6278036;22;45101;-70
2023/04/01 02:43:38;;;;;;;;;0.25;0.00;;;;;10.66;71.26;99974.38;6276284;22;45513;-72
2023/04/01 02:46:04;;;;;;;;;1.50;1.00;;;;;10.78;71.38;99987.72;6277777;22;45343;-72
2023/04/01 02:48:30;;;;;;;;;1.00;0.00;;;;;10.69;70.78;99977.06;6278414;22;45302;-70
2023/04/01 02:50:55;;;;;;;;;0.00;0.00;;;;;10.71;71.06;99975.31;6278128;22;45464;-71
2023/04/01 02:53:21;;;;;;;;;0.00;0.00;;;;;10.72;71.41;99979.72;6278057;22;45986;-71
2023/04/01 02:55:49;;;;;;;;;1.00;1.00;;;;;10.63;70.66;99972.59;6278153;22;44716;-71
2023/04/01 02:58:15;;;;;;;;;2.75;0.25;;;;;10.84;70.57;100008.97;6276046;22;45457;-72
2023/04/01 03:00:40;;;;;;;;;0.00;0.00;;;;;10.73;70.96;99981.53;6277026;22;45433;-72
2023/04/01 03:03:05;;;;;;;;;2.50;0.75;;;;;10.81;70.70;99992.16;6278337;22;45159;-71
2023/04/01 03:05:31;;;;;;;;;0.00;0.00;;;;;10.87;70.68;100006.34;6277929;22;45192;-71
2023/04/01 03:07:56;;;;;;;;;2.25;0.00;;;;;10.72;70.08;99979.72;6278470;22;45120;-72
2023/04/01 03:10:21;;;;;;;;;1.50;1.00;;;;;10.88;69.93;100023.09;6277933;22;45170;-72
2023/04/01 03:12:47;;;;;;;;;0.25;0.00;;;;;10.82;69.90;100012.44;6278292;22;46348;-72
2023/04/01 03:15:14;;;;;;;;;4.50;0.00;;;;;10.87;70.02;100014.28;6277729;22;45152;-72
2023/04/01 03:17:41;;;;;;;;;2.75;0.50;;;;;10.89;70.39;100024.84;6278460;22;45315;-72
2023/04/01 03:20:08;;;;;;;;;0.00;0.00;;;;;10.78;70.16;100014.16;6277862;22;45596;-72
2023/04/01 03:22:34;;;;;;;;;2.00;0.00;;;;;10.80;70.05;100008.91;6277985;22;45382;-72
2023/04/01 03:25:01;;;;;;;;;0.00;0.00;;;;;10.86;69.85;100030.97;6277546;22;45232;-72
2023/04/01 03:27:26;;;;;;;;;0.00;0.00;;;;;10.79;70.66;100018.59;6278002;22;45445;-72
2023/04/01 03:29:52;;;;;;;;;0.50;0.00;;;;;10.80;70.39;100024.75;6278194;22;45244;-72
2023/04/01 03:32:17;;;;;;;;;0.00;0.00;;;;;10.81;70.26;100035.38;6277955;22;45091;-72
2023/04/01 03:34:42;;;;;;;;;2.00;0.00;;;;;10.81;70.69;100040.66;6275978;22;45718;-72
2023/04/01 03:37:07;;;;;;;;;0.25;0.25;;;;;10.79;70.36;100042.38;6278261;22;45353;-72
2023/04/01 03:39:33;;;;;;;;;0.75;0.75;;;;;10.74;71.25;100036.16;6278265;22;45227;-72
2023/04/01 03:41:58;;;;;;;;;2.00;1.00;;;;;10.67;70.77;100021.06;6277349;22;50929;-72
2023/04/01 03:44:24;;;;;;;;;1.25;0.25;;;;;10.65;70.25;100020.19;6277814;22;45295;-71
2023/04/01 03:46:50;;;;;;;;;0.00;0.00;;;;;10.74;70.98;100044.97;6277964;22;45401;-72
2023/04/01 03:49:15;;;;;;;;;1.50;1.00;;;;;10.74;70.95;100041.44;6274962;22;51351;-72
2023/04/01 03:51:42;;;;;;;;;2.50;0.00;;;;;10.72;70.92;100038.75;6277740;22;46073;-72
2023/04/01 03:54:08;;;;;;;;;0.25;0.25;;;;;10.70;71.26;100026.44;6276305;22;45244;-72
2023/04/01 03:56:34;;;;;;;;;1.00;1.00;;;;;10.63;70.53;100024.56;6277938;22;45288;-72
2023/04/01 03:59:03;;;;;;;;;0.00;0.00;;;;;10.66;70.95;100038.69;6277811;22;45498;-71
2023/04/01 04:01:29;;;;;;;;;0.00;0.00;;;;;10.75;70.06;100046.75;6276869;22;45358;-72
2023/04/01 04:03:56;;;;;;;;;2.00;1.00;;;;;10.68;70.36;100041.38;6278117;22;45224;-72
2023/04/01 04:06:22;;;;;;;;;0.00;0.00;;;;;10.78;69.93;100047.63;6276036;22;45277;-72
2023/04/01 04:08:48;;;;;;;;;3.00;1.25;;;;;10.75;70.17;100052.03;6277615;22;45447;-72
2023/04/01 04:11:13;;;;;;;;;2.25;0.00;;;;;10.81;69.70;100056.50;6275897;22;46497;-72
2023/04/01 04:13:38;;;;;;;;;2.00;0.50;;;;;10.82;69.42;100050.34;6277857;22;45258;-72
2023/04/01 04:16:04;;;;;;;;;0.25;0.00;;;;;10.83;69.97;100057.41;6277208;22;45421;-72
2023/04/01 04:18:30;;;;;;;;;0.50;0.50;;;;;10.82;69.16;100052.09;6277913;22;45263;-72
2023/04/01 04:20:55;;;;;;;;;2.00;0.00;;;;;10.73;69.55;100040.56;6277583;22;45199;-72
2023/04/01 04:23:21;;;;;;;;;1.00;0.00;;;;;10.86;69.37;100064.47;6277999;22;45187;-72
2023/04/01 04:26:00;;;;;;;;;0.00;0.00;;;;;10.85;69.12;100060.06;6275948;22;45241;-72
2023/04/01 04:28:26;;;;;;;;;0.25;0.00;;;;;10.74;68.72;100049.38;6275743;22;46216;-72
2023/04/01 04:30:53;;;;;;;;;1.75;0.00;;;;;10.89;68.54;100069.78;6277058;22;45255;-72
2023/04/01 04:33:18;;;;;;;;;2.25;0.00;;;;;10.87;68.45;100069.78;6277927;22;45278;-72
2023/04/01 04:35:43;;;;;;;;;4.50;0.75;;;;;10.90;68.57;100067.19;6277471;22;45272;-72
2023/04/01 04:38:09;;;;;;;;;0.00;0.00;;;;;10.85;68.70;100052.13;6277151;22;45400;-72
2023/04/01 04:40:37;;;;;;;;;1.00;0.00;;;;;10.84;68.26;100071.50;6277492;22;46005;-71
2023/04/01 04:43:02;;;;;;;;;1.75;0.75;;;;;10.86;68.99;100067.13;6278081;22;45136;-72
2023/04/01 04:45:28;;;;;;;;;3.00;0.00;;;;;10.83;68.76;100061.81;6275280;22;44602;-72
2023/04/01 04:47:53;;;;;;;;;1.25;0.00;;;;;10.72;68.59;100038.75;6277916;22;45196;-72
2023/04/01 04:50:18;;;;;;;;;1.00;1.00;;;;;10.94;68.25;100078.66;6277477;22;45173;-72
2023/04/01 04:52:44;;;;;;;;;2.00;0.00;;;;;10.89;68.69;100068.03;6277484;22;45246;-72
2023/04/01 04:55:09;;;;;;;;;3.75;0.00;;;;;10.94;68.24;100083.97;6275928;22;45240;-72
2023/04/01 04:57:35;;;;;;;;;2.00;0.25;;;;;10.74;68.29;100047.59;6277965;22;45234;-72
2023/04/01 05:00:00;;;;;;;;;0.50;0.50;;;;;10.95;68.38;100078.69;6277842;22;45270;-72
2023/04/01 05:02:25;;;;;;;;;0.00;0.00;;;;;10.95;68.17;100081.34;6276671;22;45346;-72
2023/04/01 05:04:50;;;;;;;;;0.00;0.00;;;;;10.91;68.14;100083.94;6275959;22;45266;-72
2023/04/01 05:07:16;;;;;;;;;0.50;0.00;;;;;10.88;67.79;100073.31;6275222;22;47811;-72
2023/04/01 05:09:41;;;;;;;;;1.00;0.00;;;;;10.90;68.15;100083.03;6277525;22;49864;-72
2023/04/01 05:12:06;;;;;;;;;0.00;0.00;;;;;10.89;68.02;100083.91;6275122;22;46011;-72
2023/04/01 05:14:32;;;;;;;;;3.00;0.50;;;;;10.90;67.31;100090.09;6277538;22;45374;-72
2023/04/01 05:16:57;;;;;;;;;2.00;0.75;;;;;10.96;67.39;100098.09;6300940;22;46288;-72
2023/04/01 05:19:22;;;;;;;;;1.00;1.00;;;;;10.96;67.30;100103.38;6277728;22;46267;-72
2023/04/01 05:21:48;;;;;;;;;1.00;1.00;;;;;10.94;67.95;100102.47;6277415;22;45210;-72
2023/04/01 05:24:13;;;;;;;;;0.50;0.00;;;;;10.84;67.42;100082.97;6278112;22;45283;-72
2023/04/01 05:26:38;;;;;;;;;0.75;0.50;;;;;10.89;67.13;100101.53;6277394;22;45299;-71
2023/04/01 05:29:05;;;;;;;;;0.50;0.00;;;;;10.86;67.69;100096.19;6277427;22;46041;-71
2023/04/01 05:31:30;;;;;;;;;1.00;1.00;;;;;10.96;67.57;100113.97;6275685;22;45276;-71
2023/04/01 05:33:56;;;;;;;;;1.50;0.00;;;;;10.96;67.67;100114.84;6277528;22;45255;-71
2023/04/01 05:36:21;;;;;;;;;0.00;0.00;;;;;10.96;67.26;100117.50;6276707;22;45209;-71
2023/04/01 05:38:47;;;;;;;;;5.25;0.50;;;;;10.85;67.33;100105.91;6276855;22;53812;-71
2023/04/01 05:41:13;;;;;;;;;0.25;0.25;;;;;10.96;67.50;100119.25;6275517;22;45103;-70
2023/04/01 05:43:39;;;;;;;;;1.75;0.00;;;;;10.93;66.77;100120.09;6278469;22;45168;-69
2023/04/01 05:46:05;;;;;;;;;0.00;0.00;;;;;10.90;67.08;100105.97;6276821;22;45306;-72
2023/04/01 05:48:30;;;;;;;;;2.00;1.00;;;;;10.86;66.85;100106.78;6275715;22;45364;-72
2023/04/01 05:50:56;;;;;;;;;0.75;0.00;;;;;10.94;66.67;100116.56;6276535;22;45295;-72
2023/04/01 05:53:22;;;;;;;;;1.00;0.00;;;;;10.95;67.46;100128.94;6279468;22;45273;-72
2023/04/01 05:55:47;;;;;;;;;3.75;0.75;;;;;10.91;66.80;100127.13;6278002;22;45421;-72
2023/04/01 05:58:12;;;;;;;;;1.00;1.00;;;;;10.88;66.91;100121.78;6278448;22;45217;-72
2023/04/01 06:00:38;;;;;;;;;1.50;0.50;;;;;10.87;67.06;100119.16;6277667;22;45263;-73
2023/04/01 06:03:03;;;;;;;;;0.00;0.00;;;;;10.90;66.98;100122.72;6278705;22;45197;-72
2023/04/01 06:05:30;;;;;;;;;1.50;0.00;;;;;10.95;66.82;100139.53;6279733;22;47833;-72
2023/04/01 06:08:05;;;;;;;;;0.25;0.00;;;;;10.98;66.56;100149.25;6279484;22;45352;-71
2023/04/01 06:11:01;;;;;;;;;2.00;0.00;;;;;10.98;66.25;100155.41;6277759;22;45228;-72
2023/04/01 06:13:32;;;;;;;;;0.00;0.00;;;;;10.97;65.61;100161.56;6278507;22;45256;-72
2023/04/01 06:16:09;;;;;;;;;2.00;0.00;;;;;10.99;66.29;100156.31;6275274;22;45291;-73
2023/04/01 06:18:58;;;;;;;;;1.00;1.00;;;;;10.99;66.17;100172.16;6275750;22;48227;-72
2023/04/01 06:21:57;;;;;;;;;0.00;0.00;;;;;11.00;66.10;100157.19;6277888;22;45167;-73
2023/04/01 06:24:37;;;;;;;;;0.00;0.00;;;;;11.03;65.53;100167.78;6277629;22;45266;-71
2023/04/01 06:27:02;;;;;;;;;0.25;0.25;;;;;11.06;65.51;100168.75;6277637;22;45215;-71
2023/04/01 06:29:46;;;;;;;;;0.00;0.00;;;;;11.03;65.35;100163.38;6277903;22;45168;-72
2023/04/01 06:32:20;;;;;;;;;2.00;0.00;;;;;11.04;65.89;100165.19;6277674;22;45188;-71
2023/04/01 06:35:15;;;;;;;;;1.75;0.00;;;;;11.10;65.18;100178.47;6278197;22;45185;-71
2023/04/01 06:37:44;;;;;;;;;0.00;0.00;;;;;11.11;65.76;100184.66;6278371;22;45181;-71
2023/04/01 06:40:18;;;;;;;;;0.50;0.00;;;;;11.13;65.03;100186.44;6277173;22;47308;-71
2023/04/01 06:43:02;;;;;;;;;0.00;0.00;;;;;11.12;65.40;100192.63;6275811;22;45182;-72
2023/04/01 06:46:07;;;;;;;;;0.75;0.00;;;;;11.16;65.21;100188.25;6277695;22;45276;-71
2023/04/01 06:48:40;;;;;;;;;0.00;0.00;;;;;11.19;65.56;100180.34;6278536;22;45152;-71
2023/04/01 06:51:28;;;;;;;;;0.00;0.00;;;;;11.17;64.99;100188.28;6277947;22;45253;-72
2023/04/01 06:54:37;;;;;;;;;0.50;0.50;;;;;11.23;65.21;100184.81;6275875;22;45787;-71
2023/04/01 06:57:20;;;;;;;;;1.00;0.00;;;;;11.31;65.18;100187.53;6182717;23;45242;-71
2023/04/01 06:59:47;;;;;;;;;2.75;1.00;;;;;11.32;64.99;100181.38;6273804;22;46283;-71
2023/04/01 07:02:38;;;;;;;;;1.00;0.00;;;;;11.39;64.56;100188.50;6276886;22;46145;-71
2023/04/01 07:05:04;;;;;;;;;0.00;0.00;;;;;11.34;64.53;100171.69;6278104;22;45199;-71
2023/04/01 07:07:29;;;;;;;;;0.75;0.00;;;;;11.46;64.22;100190.34;6277844;22;45207;-71
2023/04/01 07:09:59;;;;;;;;;1.00;0.00;;;;;11.46;63.87;100193.00;6277586;22;45876;-71
2023/04/01 07:12:37;;;;;;;;;0.00;0.00;;;;;11.53;63.96;100209.81;6277186;22;47204;-71
2023/04/01 07:15:24;;;;;;;;;0.50;0.00;;;;;11.54;63.97;100209.88;6277841;22;45227;-71
2023/04/01 07:17:56;;;;;;;;;1.00;1.00;;;;;11.48;63.37;100193.88;6276169;22;45340;-71
2023/04/01 07:20:28;;;;;;;;;2.00;0.00;;;;;11.53;63.84;100200.13;6277730;22;45219;-71
2023/04/01 07:23:00;;;;;;;;;3.00;1.00;;;;;11.61;63.34;100205.50;6277436;22;46026;-71
2023/04/01 07:25:30;;;;;;;;;1.00;1.00;;;;;11.65;63.58;100213.50;6277543;22;45275;-71
2023/04/01 07:28:05;;;;;;;;;0.50;0.50;;;;;11.57;63.70;100182.53;6275768;22;45209;-71
2023/04/01 07:30:49;;;;;;;;;3.33;0.00;;;;;11.71;63.24;100210.03;6277791;22;45181;-72
2023/04/01 07:33:38;;;;;;;;;0.00;0.00;;;;;11.76;62.38;100204.75;6278673;22;45334;-71
2023/04/01 07:36:16;;;;;;;;;0.75;0.75;;;;;11.81;62.32;100214.53;6264053;22;45204;-71
2023/04/01 07:39:10;;;;;;;;;1.00;0.00;;;;;11.79;62.70;100204.78;6277792;22;45266;-71
2023/04/01 07:42:14;;;;;;;;;1.00;0.00;;;;;11.99;62.75;100218.28;6275927;22;45454;-72
2023/04/01 07:45:02;;;;;;;;;0.00;0.00;;;;;12.06;61.37;100217.44;6276955;22;45203;-72
2023/04/01 07:47:46;;;;;;;;;2.00;0.00;;;;;12.08;61.87;100210.41;6276157;22;45228;-72
2023/04/01 07:50:21;;;;;;;;;0.25;0.00;;;;;12.15;62.34;100224.59;6274679;22;45326;-71
2023/04/01 07:53:25;;;;;;;;;0.00;0.00;;;;;12.17;61.92;100215.78;6277374;22;45676;-72
2023/04/01 07:55:55;;;;;;;;;0.00;0.00;;;;;12.05;61.43;100190.06;6276562;22;46282;-72
2023/04/01 07:58:35;;;;;;;;;0.00;0.00;;;;;12.22;61.57;100205.22;6277261;22;45244;-72
2023/04/01 08:01:24;;;;;;;;;2.00;0.00;;;;;12.30;61.21;100220.31;6276068;22;45256;-72
2023/04/01 08:03:52;;;;;;;;;0.00;0.00;;;;;12.40;61.20;100223.91;6277648;22;45142;-72
2023/04/01 08:06:28;;;;;;;;;0.67;0.00;;;;;12.45;61.38;100234.56;6276327;22;46110;-72
2023/04/01 08:09:30;;;;;;;;;2.00;1.00;;;;;12.43;61.16;100208.03;6277107;22;45235;-71
2023/04/01 08:12:28;;;;;;;;;1.00;1.00;;;;;12.68;60.87;100226.75;6267415;22;45378;-72
2023/04/01 08:15:27;;;;;;;;;2.00;0.00;;;;;12.76;60.59;100249.78;6275284;22;46645;-72
2023/04/01 08:18:17;;;;;;;;;1.67;0.00;;;;;12.80;60.23;100241.84;6277295;22;45634;-72
2023/04/01 08:20:58;;;;;;;;;0.00;0.00;;;;;12.78;59.78;100239.22;6277256;22;45216;-72
2023/04/01 08:23:31;;;;;;;;;0.00;0.00;;;;;12.79;59.95;100250.69;6277953;22;45323;-72
2023/04/01 08:26:11;;;;;;;;;2.00;0.00;;;;;12.75;60.01;100271.91;6276954;22;45236;-72
2023/04/01 08:28:46;;;;;;;;;0.00;0.00;;;;;12.60;59.49;100241.72;6274686;22;46660;-72
2023/04/01 08:31:23;;;;;;;;;2.00;1.00;;;;;12.53;59.29;100233.72;6274597;22;45354;-72
2023/04/01 08:33:49;;;;;;;;;0.67;0.67;;;;;12.61;59.52;100248.81;6277537;22;45163;-72
2023/04/01 08:36:23;;;;;;;;;0.33;0.00;;;;;12.61;59.99;100262.97;6274895;22;45499;-72
2023/04/01 08:39:02;;;;;;;;;2.00;0.00;;;;;12.52;60.18;100254.94;6277182;22;46358;-72
2023/04/01 08:41:30;;;;;;;;;1.00;0.00;;;;;12.58;60.11;100259.41;6277393;22;45468;-71
2023/04/01 08:43:55;;;;;;;;;1.00;1.00;;;;;12.53;60.64;100281.44;6277503;22;45382;-71
2023/04/01 08:47:05;;;;;;;;;2.00;0.33;;;;;12.46;60.94;100263.75;6276156;22;46385;-71
2023/04/01 08:49:56;;;;;;;;;1.67;0.00;;;;;12.44;60.86;100276.09;6202005;22;45349;-71
2023/04/01 08:52:33;;;;;;;;;1.00;0.00;;;;;12.45;61.40;100267.25;6276829;22;45234;-71
2023/04/01 08:55:26;;;;;;;;;1.67;0.00;;;;;12.56;60.79;100267.34;6277481;22;45302;-72
2023/04/01 08:58:19;;;;;;;;;1.67;0.67;;;;;12.66;60.19;100273.56;6277262;22;45516;-71
2023/04/01 09:01:07;;;;;;;;;0.00;0.00;;;;;12.68;59.93;100254.16;6276855;22;45410;-71
2023/04/01 09:03:54;;;;;;;;;1.00;1.00;;;;;12.87;59.75;100264.91;6274652;22;45151;-71
2023/04/01 09:06:38;;;;;;;;;0.67;0.00;;;;;13.02;59.69;100261.44;6272768;22;45395;-71
2023/04/01 09:09:09;;;;;;;;;1.67;0.67;;;;;13.14;59.01;100266.84;6274354;22;45442;-71
2023/04/01 09:11:44;;;;;;;;;0.00;0.00;;;;;13.25;58.75;100253.59;6274538;22;45242;-71
2023/04/01 09:14:27;;;;;;;;;1.33;0.00;;;;;13.30;58.90;100252.75;6274394;22;45275;-71
2023/04/01 09:16:58;;;;;;;;;2.00;0.00;;;;;13.40;57.49;100251.94;6274016;22;45361;-71
2023/04/01 09:19:53;;;;;;;;;1.67;0.00;;;;;13.42;57.95;100244.88;6274541;22;45248;-71
2023/04/01 09:22:29;;;;;;;;;2.00;1.00;;;;;13.46;57.83;100244.88;6274052;22;46044;-71
2023/04/01 09:25:24;;;;;;;;;1.00;0.00;;;;;13.52;57.34;100261.72;6276578;22;45314;-71
2023/04/01 09:28:14;;;;;;;;;2.00;0.00;;;;;13.62;57.40;100257.34;6275979;22;45242;-68
2023/04/01 09:31:00;;;;;;;;;0.00;0.00;;;;;13.68;57.22;100267.09;6273359;22;45526;-71
2023/04/01 09:33:44;;;;;;;;;1.00;1.00;;;;;13.73;57.52;100279.50;6275917;22;45164;-69
2023/04/01 09:36:45;;;;;;;;;4.00;1.00;;;;;13.71;56.23;100267.97;6273702;22;45330;-71
2023/04/01 09:39:37;;;;;;;;;1.00;1.00;;;;;13.68;57.12;100254.69;6277283;22;45350;-71
2023/04/01 09:42:44;;;;;;;;;1.00;0.00;;;;;13.75;56.89;100269.78;6276776;22;45405;-72
2023/04/01 09:45:41;;;;;;;;;3.33;1.00;;;;;13.82;56.85;100270.66;6255126;22;45247;-70
2023/04/01 09:48:28;;;;;;;;;1.00;0.00;;;;;13.84;55.99;100272.44;6277128;22;45319;-70
2023/04/01 09:51:15;;;;;;;;;0.00;0.00;;;;;13.92;55.32;100283.09;6276648;22;45291;-71
2023/04/01 09:53:59;;;;;;;;;1.00;0.00;;;;;13.95;54.81;100283.09;6276665;22;45276;-71
2023/04/01 09:56:45;;;;;;;;;2.67;0.00;;;;;13.85;54.11;100266.22;6275896;22;46286;-71
2023/04/01 09:59:41;;;;;;;;;1.00;1.00;;;;;13.96;53.50;100279.56;6274003;22;45214;-71
2023/04/01 10:02:31;;;;;;;;;0.00;0.00;;;;;14.05;53.91;100289.31;6225991;22;1106071;-72
2023/04/01 10:05:15;;;;;;;;;1.00;0.00;;;;;14.08;53.90;100287.53;6277879;22;45599;-71
2023/04/01 10:08:18;;;;;;;;;0.00;0.00;;;;;14.00;53.20;100275.13;6275330;22;46711;-72
2023/04/01 10:10:55;;;;;;;;;0.33;0.00;;;;;14.23;53.07;100299.97;6275267;22;45274;-71
2023/04/01 10:13:39;;;;;;;;;0.33;0.00;;;;;14.27;51.82;100303.53;6278115;22;45311;-70
2023/04/01 10:16:19;;;;;;;;;0.00;0.00;;;;;14.36;52.00;100311.50;6276702;22;45217;-71
2023/04/01 10:19:09;;;;;;;;;1.00;0.00;;;;;14.45;50.83;100305.31;6277348;22;46333;-72
2023/04/01 10:21:40;;;;;;;;;1.00;0.00;;;;;14.53;50.60;100295.59;6277789;22;45198;-71
2023/04/01 10:24:30;;;;;;;;;0.00;0.00;;;;;14.60;49.69;100299.16;6278249;22;44911;-71
2023/04/01 10:27:34;;;;;;;;;0.00;0.00;;;;;14.80;50.13;100291.16;6277586;22;45363;-72
2023/04/01 10:30:15;;;;;;;;;2.00;0.33;;;;;15.14;48.70;100283.97;6277140;22;46254;-72
2023/04/01 10:33:08;;;;;;;;;0.67;0.67;;;;;15.51;47.95;100278.53;6277307;22;45552;-72
2023/04/01 10:35:42;;;;;;;;;0.00;0.00;;;;;15.76;46.25;100284.66;6274442;22;45327;-72
2023/04/01 10:38:41;;;;;;;;;2.00;1.33;;;;;15.96;46.33;100284.56;6277543;22;45535;-72
2023/04/01 10:41:33;;;;;;;;;2.33;0.00;;;;;15.97;45.42;100268.56;6277117;22;45174;-72
2023/04/01 10:44:17;;;;;;;;;3.00;0.00;;;;;16.09;46.29;100273.81;6277605;22;45219;-72
2023/04/01 10:47:02;;;;;;;;;3.00;1.00;;;;;16.09;46.32;100272.91;6276936;22;45296;-72
2023/04/01 10:49:46;;;;;;;;;2.00;0.00;;;;;16.05;45.62;100269.41;6277490;22;45275;-74
2023/04/01 10:52:46;;;;;;;;;3.00;3.00;;;;;16.03;45.83;100278.31;6277140;22;45348;-73
2023/04/01 10:55:34;;;;;;;;;0.00;0.00;;;;;16.04;45.63;100288.94;6277570;22;45167;-69
2023/04/01 10:58:23;;;;;;;;;18.00;17.00;;;;;16.09;45.37;100287.13;6277309;22;45220;-70
2023/04/01 11:01:04;;;;;;;;;1.00;1.00;;;;;16.30;44.93;100283.44;6276451;22;45267;-71
2023/04/01 11:04:20;;;;;;;;;5.00;3.67;;;;;16.57;43.94;100276.09;6277647;22;44956;-71
2023/04/01 11:07:07;;;;;;;;;0.00;0.00;;;;;16.66;44.05;100272.47;6222879;22;45300;-71
2023/04/01 11:09:39;;;;;;;;;2.00;1.00;;;;;16.66;43.99;100280.47;6277605;22;45450;-71
2023/04/01 11:12:35;;;;;;;;;3.00;3.00;;;;;16.62;42.90;100268.94;6277202;22;45301;-71
2023/04/01 11:15:19;;;;;;;;;6.00;4.00;;;;;16.62;43.74;100265.41;6276967;22;45343;-71
2023/04/01 11:18:08;;;;;;;;;26.00;24.00;;;;;16.61;43.05;100272.53;6277132;22;45231;-71
2023/04/01 11:21:27;;;;;;;;;28.33;24.33;;;;;16.68;43.62;100281.34;6276855;22;45601;-71
2023/04/01 11:24:32;;;;;;;;;15.00;13.00;;;;;16.68;43.87;100276.91;6276555;22;45420;-71
2023/04/01 11:27:18;;;;;;;;;41.67;30.33;;;;;16.54;42.91;100257.47;6276711;22;45657;-71
2023/04/01 11:29:49;;;;;;;;;8.33;5.00;;;;;16.66;43.80;100265.34;6277049;22;45333;-71
2023/04/01 11:32:17;;;;;;;;;15.33;12.00;;;;;16.69;44.63;100272.44;6274038;22;45280;-71
2023/04/01 11:35:19;;;;;;;;;0.00;0.00;;;;;16.66;43.41;100269.78;6277458;22;45525;-71
2023/04/01 11:38:06;;;;;;;;;0.00;0.00;;;;;16.43;43.14;100273.53;6277322;22;45212;-72
2023/04/01 11:40:45;;;;;;;;;0.00;0.00;;;;;16.43;43.58;100278.88;6275531;22;45207;-71
2023/04/01 11:43:29;;;;;;;;;10.00;9.67;;;;;16.29;44.46;100262.97;6277391;22;45243;-71
2023/04/01 11:45:57;;;;;;;;;18.33;15.33;;;;;16.27;43.52;100282.56;6276549;22;45288;-71
2023/04/01 11:48:31;;;;;;;;;14.67;14.00;;;;;16.16;44.09;100276.41;6277423;22;46678;-70
2023/04/01 11:50:57;;;;;;;;;24.67;23.67;;;;;16.02;43.67;100280.09;6277058;22;45362;-71
2023/04/01 11:53:52;;;;;;;;;2.33;2.33;;;;;16.04;44.54;100272.06;6277417;22;45458;-71
2023/04/01 11:56:55;;;;;;;;;9.33;7.00;;;;;16.22;43.86;100287.06;6276721;22;45268;-71
2023/04/01 11:59:42;;;;;;;;;6.00;4.67;;;;;16.53;43.85;100285.06;6274904;22;47212;-73
2023/04/01 12:02:41;;;;;;;;;7.33;7.33;;;;;16.92;42.83;100286.50;6276114;22;46380;-72
2023/04/01 12:05:31;;;;;;;;;6.67;5.00;;;;;17.34;42.56;100280.72;6277177;22;45240;-72
2023/04/01 12:08:30;;;;;;;;;2.33;0.33;;;;;17.57;41.59;100285.78;6276761;22;45337;-71